createdAt,value
2018-07-22T00:00:11.967Z,28.70
2018-07-22T00:02:40.322Z,28.37
2018-07-22T00:05:08.358Z,29.80
2018-07-22T00:07:36.265Z,29.27
2018-07-22T00:10:04.932Z,32.33
2018-07-22T00:12:32.695Z,31.67
2018-07-22T00:15:00.576Z,31.13
2018-07-22T00:17:28.265Z,29.40
2018-07-22T00:19:56.757Z,33.30
2018-07-22T00:22:24.541Z,32.10
2018-07-22T00:24:52.267Z,34.27
2018-07-22T00:27:20.054Z,33.07
2018-07-22T00:29:47.744Z,34.43
2018-07-22T00:32:15.553Z,29.57
2018-07-22T00:34:43.439Z,30.63
2018-07-22T00:37:11.224Z,33.87
2018-07-22T00:39:38.964Z,34.87
2018-07-22T00:42:06.767Z,26.93
2018-07-22T00:44:35.141Z,31.50
2018-07-22T00:47:04.296Z,27.83
2018-07-22T00:49:32.712Z,28.97
2018-07-22T00:52:00.532Z,26.60
2018-07-22T00:54:28.415Z,30.00
2018-07-22T00:56:56.206Z,27.53
2018-07-22T00:59:23.980Z,26.63
2018-07-22T01:01:52.848Z,28.23
2018-07-22T01:04:20.808Z,28.37
2018-07-22T01:06:48.673Z,31.77
2018-07-22T01:09:16.450Z,28.70
2018-07-22T01:11:44.260Z,28.57
2018-07-22T01:14:12.141Z,30.77
2018-07-22T01:16:40.077Z,27.87
2018-07-22T01:19:08.084Z,27.30
2018-07-22T01:21:35.811Z,26.60
2018-07-22T01:24:03.625Z,28.10
2018-07-22T01:26:31.384Z,29.60
2018-07-22T01:28:59.177Z,28.60
2018-07-22T01:31:27.277Z,26.10
2018-07-22T01:33:55.360Z,25.83
2018-07-22T01:36:23.377Z,26.47
2018-07-22T01:38:51.177Z,26.27
2018-07-22T01:41:19.015Z,25.20
2018-07-22T01:43:46.725Z,27.10
2018-07-22T01:46:14.760Z,28.00
2018-07-22T01:48:42.608Z,29.83
2018-07-22T01:51:10.201Z,25.20
2018-07-22T01:53:38.070Z,26.80
2018-07-22T01:56:05.957Z,26.30
2018-07-22T01:58:34.053Z,25.30
2018-07-22T02:01:01.820Z,29.70
2018-07-22T02:03:30.609Z,31.10
2018-07-22T02:05:58.477Z,29.60
2018-07-22T02:08:26.932Z,28.80
2018-07-22T02:10:54.940Z,29.70
2018-07-22T02:13:22.708Z,29.10
2018-07-22T02:15:51.230Z,26.57
2018-07-22T02:18:18.992Z,28.97
2018-07-22T02:20:47.685Z,29.77
2018-07-22T02:23:15.616Z,29.27
2018-07-22T02:25:43.425Z,30.57
2018-07-22T02:28:11.084Z,28.60
2018-07-22T02:30:39.752Z,26.90
2018-07-22T02:33:07.563Z,27.70
2018-07-22T02:35:35.739Z,29.20
2018-07-22T02:38:03.469Z,22.23
2018-07-22T02:40:31.932Z,28.77
2018-07-22T02:43:00.449Z,25.40
2018-07-22T02:45:28.189Z,25.67
2018-07-22T02:47:56.162Z,28.90
2018-07-22T02:50:23.983Z,31.50
2018-07-22T02:52:52.470Z,29.70
2018-07-22T02:55:20.226Z,29.87
2018-07-22T02:57:48.053Z,30.50
2018-07-22T03:00:17.135Z,33.93
2018-07-22T03:02:44.909Z,35.03
2018-07-22T03:05:12.989Z,30.87
2018-07-22T03:07:40.745Z,32.90
2018-07-22T03:10:08.408Z,33.50
2018-07-22T03:12:36.105Z,32.13
2018-07-22T03:15:04.773Z,31.97
2018-07-22T03:17:32.745Z,34.27
2018-07-22T03:20:00.379Z,34.63
2018-07-22T03:22:28.292Z,31.50
2018-07-22T03:24:55.928Z,28.40
2018-07-22T03:27:23.637Z,28.60
2018-07-22T03:29:51.433Z,33.83
2018-07-22T03:32:19.265Z,29.93
2018-07-22T03:34:46.977Z,33.23
2018-07-22T03:37:15.336Z,28.67
2018-07-22T03:39:43.016Z,27.00
2018-07-22T03:42:10.954Z,26.57
2018-07-22T03:44:38.892Z,27.17
2018-07-22T03:47:07.343Z,25.30
2018-07-22T03:49:35.099Z,27.70
2018-07-22T03:52:02.978Z,27.90
2018-07-22T03:54:30.606Z,29.07
2018-07-22T03:56:59.176Z,28.23
2018-07-22T03:59:26.969Z,30.97
2018-07-22T04:01:54.594Z,32.13
2018-07-22T04:04:22.433Z,31.50
2018-07-22T04:06:50.381Z,30.23
2018-07-22T04:09:18.174Z,31.70
2018-07-22T04:11:46.032Z,32.37
2018-07-22T04:14:13.710Z,31.60
2018-07-22T04:16:41.727Z,30.57
2018-07-22T04:19:09.792Z,29.33
2018-07-22T04:21:37.807Z,29.07
2018-07-22T04:24:05.619Z,30.40
2018-07-22T04:26:34.044Z,27.50
2018-07-22T04:29:01.950Z,25.23
2018-07-22T04:31:29.742Z,25.23
2018-07-22T04:33:57.480Z,26.03
2018-07-22T04:36:25.256Z,26.80
2018-07-22T04:38:53.081Z,28.17
2018-07-22T04:41:20.792Z,27.57
2018-07-22T04:43:48.695Z,25.70
2018-07-22T04:46:16.360Z,28.13
2018-07-22T04:48:44.159Z,28.53
2018-07-22T04:51:11.850Z,28.33
2018-07-22T04:53:39.800Z,27.17
2018-07-22T04:56:08.097Z,27.40
2018-07-22T04:58:35.788Z,27.07
2018-07-22T05:01:04.432Z,27.00
2018-07-22T05:03:32.397Z,26.03
2018-07-22T05:06:00.128Z,28.00
2018-07-22T05:08:28.009Z,27.70
2018-07-22T05:10:55.876Z,26.77
2018-07-22T05:13:24.169Z,29.33
2018-07-22T05:15:52.013Z,25.23
2018-07-22T05:18:19.760Z,26.43
2018-07-22T05:20:47.470Z,30.03
2018-07-22T05:23:15.307Z,28.70
2018-07-22T05:25:43.003Z,27.57
2018-07-22T05:28:11.064Z,24.60
2018-07-22T05:30:38.891Z,24.37
2018-07-22T05:33:06.724Z,29.60
2018-07-22T05:35:34.576Z,27.43
2018-07-22T05:38:02.825Z,27.23
2018-07-22T05:40:30.536Z,25.87
2018-07-22T05:42:58.431Z,25.80
2018-07-22T05:45:26.420Z,28.63
2018-07-22T05:47:54.518Z,25.00
2018-07-22T05:50:23.001Z,27.13
2018-07-22T05:52:50.825Z,27.87
2018-07-22T05:55:18.568Z,24.60
2018-07-22T05:57:46.353Z,24.90
2018-07-22T06:00:14.208Z,29.20
2018-07-22T06:02:41.979Z,25.50
2018-07-22T06:05:09.948Z,29.20
2018-07-22T06:07:37.731Z,26.20
2018-07-22T06:10:05.821Z,25.87
2018-07-22T06:12:34.379Z,26.27
2018-07-22T06:15:02.290Z,24.63
2018-07-22T06:17:30.014Z,25.37
2018-07-22T06:19:57.782Z,24.70
2018-07-22T06:22:25.579Z,24.10
2018-07-22T06:24:53.605Z,26.27
2018-07-22T06:27:21.465Z,26.23
2018-07-22T06:29:49.805Z,28.97
2018-07-22T06:32:17.657Z,27.43
2018-07-22T06:34:45.592Z,29.13
2018-07-22T06:37:16.224Z,25.73
2018-07-22T06:39:43.956Z,27.57
2018-07-22T06:42:11.845Z,28.10
2018-07-22T06:44:39.791Z,25.20
2018-07-22T06:47:07.658Z,29.40
2018-07-22T06:49:35.551Z,26.80
2018-07-22T06:52:03.353Z,25.37
2018-07-22T06:54:31.050Z,28.30
2018-07-22T06:56:58.941Z,26.83
2018-07-22T06:59:27.373Z,24.90
2018-07-22T07:01:55.113Z,24.00
2018-07-22T07:04:23.451Z,26.23
2018-07-22T07:06:51.348Z,21.97
2018-07-22T07:09:19.073Z,22.43
2018-07-22T07:11:47.448Z,20.73
2018-07-22T07:14:21.169Z,23.63
2018-07-22T07:16:49.171Z,25.33
2018-07-22T07:19:17.040Z,22.80
2018-07-22T07:21:44.854Z,25.47
2018-07-22T07:24:12.612Z,25.97
2018-07-22T07:26:40.619Z,27.07
2018-07-22T07:29:08.959Z,26.63
2018-07-22T07:31:38.769Z,23.83
2018-07-22T07:34:07.555Z,23.67
2018-07-22T07:36:35.680Z,23.30
2018-07-22T07:39:05.952Z,23.90
2018-07-22T07:41:34.199Z,22.50
2018-07-22T07:44:01.806Z,22.40
2018-07-22T07:46:29.602Z,23.30
2018-07-22T07:48:58.224Z,22.27
2018-07-22T07:51:26.730Z,22.10
2018-07-22T07:53:55.093Z,22.13
2018-07-22T07:56:22.874Z,21.47
2018-07-22T07:58:50.956Z,21.97
2018-07-22T08:01:19.302Z,18.30
2018-07-22T08:03:47.072Z,19.73
2018-07-22T08:06:15.220Z,18.77
2018-07-22T08:08:43.275Z,18.07
2018-07-22T08:11:11.630Z,18.73
2018-07-22T08:13:40.166Z,17.90
2018-07-22T08:16:08.033Z,18.43
2018-07-22T08:18:37.471Z,20.20
2018-07-22T08:21:05.241Z,20.00
2018-07-22T08:23:33.991Z,20.40
2018-07-22T08:26:01.814Z,21.27
2018-07-22T08:28:40.857Z,20.50
2018-07-22T08:31:09.286Z,21.17
2018-07-22T08:33:37.102Z,20.70
2018-07-22T08:36:05.098Z,19.37
2018-07-22T08:38:34.363Z,23.00
2018-07-22T08:41:02.400Z,20.60
2018-07-22T08:43:30.862Z,22.57
2018-07-22T08:45:59.110Z,22.30
2018-07-22T08:48:27.451Z,20.77
2018-07-22T08:50:55.316Z,20.50
2018-07-22T08:53:23.744Z,20.57
2018-07-22T08:55:51.491Z,21.77
2018-07-22T08:58:19.537Z,20.00
2018-07-22T09:00:47.346Z,20.80
2018-07-22T09:03:15.178Z,19.20
2018-07-22T09:05:43.127Z,21.23
2018-07-22T09:08:11.076Z,19.50
2018-07-22T09:10:39.245Z,21.00
2018-07-22T09:13:07.778Z,22.40
2018-07-22T09:15:36.224Z,23.50
2018-07-22T09:18:04.788Z,23.40
2018-07-22T09:20:33.385Z,34.43
2018-07-22T09:23:02.447Z,31.87
2018-07-22T09:25:31.033Z,27.57
2018-07-22T09:27:58.792Z,30.53
2018-07-22T09:30:28.190Z,27.73
2018-07-22T09:32:56.411Z,24.80
2018-07-22T09:35:24.191Z,23.60
2018-07-22T09:37:52.926Z,23.40
2018-07-22T09:40:20.781Z,21.73
2018-07-22T09:42:49.206Z,21.43
2018-07-22T09:45:17.677Z,22.47
2018-07-22T09:47:45.985Z,23.43
2018-07-22T09:50:13.732Z,20.83
2018-07-22T09:52:42.139Z,21.20
2018-07-22T09:55:09.877Z,20.57
2018-07-22T09:57:38.061Z,20.70
2018-07-22T10:00:06.598Z,19.77
2018-07-22T10:02:34.624Z,18.67
2018-07-22T10:05:03.773Z,18.60
2018-07-22T10:07:31.765Z,16.90
2018-07-22T10:10:00.393Z,18.30
2018-07-22T10:12:28.799Z,17.10
2018-07-22T10:14:56.788Z,18.03
2018-07-22T10:17:25.097Z,18.00
2018-07-22T10:19:53.351Z,19.37
2018-07-22T10:22:21.436Z,18.27
2018-07-22T10:24:49.307Z,18.90
2018-07-22T10:27:17.082Z,19.80
2018-07-22T10:29:44.961Z,20.33
2018-07-22T10:32:12.779Z,19.63
2018-07-22T10:34:41.459Z,20.07
2018-07-22T10:37:09.243Z,22.57
2018-07-22T10:39:37.444Z,20.13
2018-07-22T10:42:05.556Z,21.00
2018-07-22T10:44:33.502Z,21.87
2018-07-22T10:47:01.255Z,20.50
2018-07-22T10:49:29.740Z,21.03
2018-07-22T10:51:57.570Z,20.50
2018-07-22T10:54:25.583Z,21.67
2018-07-22T10:56:54.000Z,20.47
2018-07-22T10:59:22.078Z,20.57
2018-07-22T11:01:49.880Z,19.23
2018-07-22T11:04:19.106Z,21.37
2018-07-22T11:06:47.147Z,19.60
2018-07-22T11:09:15.305Z,20.57
2018-07-22T11:11:43.761Z,20.67
2018-07-22T11:14:12.205Z,17.03
2018-07-22T11:16:40.864Z,18.97
2018-07-22T11:19:09.830Z,19.33
2018-07-22T11:21:38.063Z,19.53
2018-07-22T11:24:06.278Z,21.57
2018-07-22T11:26:34.090Z,18.97
2018-07-22T11:29:02.743Z,21.80
2018-07-22T11:31:30.726Z,19.90
2018-07-22T11:33:59.311Z,21.10
2018-07-22T11:36:27.630Z,19.80
2018-07-22T11:38:56.399Z,20.93
2018-07-22T11:41:24.614Z,19.40
2018-07-22T11:43:53.720Z,18.30
2018-07-22T11:46:22.658Z,19.20
2018-07-22T11:48:51.503Z,20.40
2018-07-22T11:51:19.415Z,19.60
2018-07-22T11:53:47.183Z,20.10
2018-07-22T11:56:14.853Z,19.13
2018-07-22T11:58:42.683Z,21.10
2018-07-22T12:01:10.610Z,20.70
2018-07-22T12:03:38.604Z,18.63
2018-07-22T12:06:06.932Z,19.10
2018-07-22T12:08:34.621Z,17.40
2018-07-22T12:11:02.442Z,18.30
2018-07-22T12:13:30.258Z,19.03
2018-07-22T12:15:58.153Z,17.50
2018-07-22T12:18:25.829Z,17.53
2018-07-22T12:20:53.628Z,17.30
2018-07-22T12:23:21.504Z,19.83
2018-07-22T12:25:49.513Z,20.27
2018-07-22T12:28:17.398Z,22.37
2018-07-22T12:30:45.198Z,21.97
2018-07-22T12:33:13.004Z,23.20
2018-07-22T12:35:40.808Z,20.07
2018-07-22T12:38:08.717Z,17.20
2018-07-22T12:40:36.505Z,17.20
2018-07-22T12:43:04.616Z,16.90
2018-07-22T12:45:32.610Z,16.23
2018-07-22T12:48:00.315Z,16.80
2018-07-22T12:50:28.316Z,15.40
2018-07-22T12:52:56.268Z,15.60
2018-07-22T12:55:24.329Z,16.13
2018-07-22T12:57:52.314Z,15.50
2018-07-22T13:00:20.285Z,14.10
2018-07-22T13:02:48.100Z,16.23
2018-07-22T13:05:16.129Z,17.50
2018-07-22T13:07:43.952Z,16.50
2018-07-22T13:10:11.750Z,17.87
2018-07-22T13:12:40.580Z,17.90
2018-07-22T13:15:09.067Z,17.93
2018-07-22T13:17:36.957Z,19.57
2018-07-22T13:20:05.019Z,19.40
2018-07-22T13:22:32.854Z,19.27
2018-07-22T13:25:01.345Z,18.43
2018-07-22T13:27:29.302Z,18.37
2018-07-22T13:29:57.192Z,18.23
2018-07-22T13:32:25.167Z,17.20
2018-07-22T13:34:53.077Z,16.93
2018-07-22T13:37:21.148Z,16.80
2018-07-22T13:39:49.124Z,16.10
2018-07-22T13:42:17.449Z,14.90
2018-07-22T13:44:45.564Z,16.20
2018-07-22T13:47:13.649Z,15.37
2018-07-22T13:49:41.645Z,14.97
2018-07-22T13:52:09.465Z,15.40
2018-07-22T13:54:37.250Z,14.10
2018-07-22T13:57:05.533Z,12.83
2018-07-22T13:59:33.539Z,14.20
2018-07-22T14:02:01.535Z,13.43
2018-07-22T14:04:30.541Z,13.03
2018-07-22T14:06:58.269Z,13.43
2018-07-22T14:09:26.156Z,11.90
2018-07-22T14:11:53.926Z,13.53
2018-07-22T14:14:22.455Z,11.97
2018-07-22T14:16:51.040Z,11.00
2018-07-22T14:19:18.853Z,12.17
2018-07-22T14:21:46.708Z,13.90
2018-07-22T14:24:15.944Z,12.83
2018-07-22T14:26:43.681Z,10.77
2018-07-22T14:29:11.712Z,12.40
2018-07-22T14:31:40.099Z,11.50
2018-07-22T14:34:08.013Z,11.10
2018-07-22T14:36:35.852Z,10.93
2018-07-22T14:39:08.216Z,10.67
2018-07-22T14:41:36.040Z,11.53
2018-07-22T14:44:03.901Z,10.93
2018-07-22T14:46:31.797Z,9.60
2018-07-22T14:48:59.644Z,10.20
2018-07-22T14:51:27.595Z,10.77
2018-07-22T14:53:56.198Z,9.30
2018-07-22T14:56:25.170Z,9.30
2018-07-22T14:58:53.071Z,9.27
2018-07-22T15:01:21.033Z,8.77
2018-07-22T15:03:48.829Z,8.97
2018-07-22T15:06:16.798Z,9.10
2018-07-22T15:08:44.642Z,8.37
2018-07-22T15:11:12.597Z,8.73
2018-07-22T15:13:41.152Z,8.77
2018-07-22T15:16:09.067Z,8.00
2018-07-22T15:18:37.091Z,10.73
2018-07-22T15:21:05.420Z,6.67
2018-07-22T15:23:34.133Z,6.77
2018-07-22T15:26:03.305Z,7.27
2018-07-22T15:28:31.160Z,7.23
2018-07-22T15:30:59.119Z,23.47
2018-07-22T15:33:26.925Z,6.80
2018-07-22T15:35:54.705Z,7.43
2018-07-22T15:38:22.754Z,6.93
2018-07-22T15:40:51.260Z,6.80
2018-07-22T15:43:19.078Z,6.33
2018-07-22T15:45:47.013Z,6.50
2018-07-22T15:48:15.072Z,7.90
2018-07-22T15:50:46.285Z,6.73
2018-07-22T15:53:14.388Z,7.40
2018-07-22T15:55:43.070Z,7.23
2018-07-22T15:58:10.749Z,7.00
2018-07-22T16:00:39.112Z,7.10
2018-07-22T16:03:07.729Z,7.27
2018-07-22T16:05:35.618Z,6.87
2018-07-22T16:08:03.614Z,7.20
2018-07-22T16:10:32.320Z,7.87
2018-07-22T16:13:00.590Z,7.10
2018-07-22T16:15:28.421Z,7.10
2018-07-22T16:17:56.104Z,6.93
2018-07-22T16:20:24.054Z,7.33
2018-07-22T16:22:51.829Z,7.50
2018-07-22T16:25:19.680Z,7.60
2018-07-22T16:27:47.565Z,7.87
2018-07-22T16:30:15.403Z,7.93
2018-07-22T16:32:43.261Z,8.87
2018-07-22T16:35:11.185Z,9.70
2018-07-22T16:37:39.270Z,9.80
2018-07-22T16:40:07.903Z,10.17
2018-07-22T16:42:35.738Z,12.20
2018-07-22T16:45:03.612Z,11.73
2018-07-22T16:47:31.290Z,12.90
2018-07-22T16:49:59.397Z,12.80
2018-07-22T16:52:27.408Z,13.37
2018-07-22T16:54:55.289Z,14.47
2018-07-22T16:57:23.572Z,13.70
2018-07-22T16:59:52.008Z,14.73
2018-07-22T17:02:20.540Z,13.00
2018-07-22T17:04:48.391Z,14.73
2018-07-22T17:07:16.335Z,13.00
2018-07-22T17:09:44.059Z,14.07
2018-07-22T17:12:11.969Z,13.57
2018-07-22T17:14:39.873Z,14.07
2018-07-22T17:17:07.786Z,13.97
2018-07-22T17:19:35.621Z,17.17
2018-07-22T17:22:03.473Z,16.37
2018-07-22T17:24:31.653Z,14.43
2018-07-22T17:26:59.379Z,14.93
2018-07-22T17:29:27.381Z,15.77
2018-07-22T17:31:55.354Z,16.50
2018-07-22T17:34:23.327Z,14.90
2018-07-22T17:36:51.337Z,15.00
2018-07-22T17:39:19.788Z,13.80
2018-07-22T17:41:47.708Z,14.00
2018-07-22T17:44:15.568Z,14.30
2018-07-22T17:46:43.603Z,13.57
2018-07-22T17:49:12.457Z,14.60
2018-07-22T17:51:40.973Z,15.80
2018-07-22T17:54:08.776Z,16.60
2018-07-22T17:56:37.258Z,15.43
2018-07-22T17:59:05.212Z,16.03
2018-07-22T18:01:33.154Z,14.97
2018-07-22T18:04:01.139Z,16.67
2018-07-22T18:06:28.940Z,17.17
2018-07-22T18:08:56.883Z,16.67
2018-07-22T18:11:24.955Z,16.90
2018-07-22T18:13:53.031Z,17.20
2018-07-22T18:16:20.899Z,17.30
2018-07-22T18:18:48.709Z,17.60
2018-07-22T18:21:16.522Z,18.50
2018-07-22T18:23:45.002Z,20.10
2018-07-22T18:26:13.060Z,17.97
2018-07-22T18:28:40.956Z,18.50
2018-07-22T18:31:08.731Z,23.40
2018-07-22T18:33:37.017Z,28.37
2018-07-22T18:36:05.163Z,26.87
2018-07-22T18:38:33.508Z,24.80
2018-07-22T18:41:02.433Z,23.87
2018-07-22T18:43:30.712Z,21.67
2018-07-22T18:45:59.921Z,20.80
2018-07-22T18:48:29.188Z,22.13
2018-07-22T18:50:57.017Z,21.27
2018-07-22T18:53:25.785Z,23.57
2018-07-22T18:55:54.885Z,21.60
2018-07-22T18:58:23.162Z,21.57
2018-07-22T19:00:51.547Z,22.13
2018-07-22T19:03:19.842Z,22.40
2018-07-22T19:05:48.788Z,21.80
2018-07-22T19:08:17.106Z,21.33
2018-07-22T19:10:45.385Z,22.10
2018-07-22T19:13:13.862Z,21.60
2018-07-22T19:15:42.357Z,21.60
2018-07-22T19:18:11.042Z,24.90
2018-07-22T19:20:39.326Z,24.33
2018-07-22T19:23:07.725Z,24.90
2018-07-22T19:25:36.192Z,26.53
2018-07-22T19:28:05.190Z,23.37
2018-07-22T19:30:33.430Z,23.03
2018-07-22T19:33:01.653Z,25.93
2018-07-22T19:35:29.894Z,21.43
2018-07-22T19:37:58.414Z,21.43
2018-07-22T19:40:27.275Z,22.67
2018-07-22T19:42:56.203Z,20.80
2018-07-22T19:45:24.545Z,19.57
2018-07-22T19:47:52.877Z,21.57
2018-07-22T19:50:21.464Z,20.83
2018-07-22T19:52:49.736Z,22.43
2018-07-22T19:55:18.125Z,22.43
2018-07-22T19:57:47.015Z,21.90
2018-07-22T20:00:15.301Z,22.20
2018-07-22T20:02:43.681Z,23.57
2018-07-22T20:05:12.570Z,25.30
2018-07-22T20:07:40.852Z,24.00
2018-07-22T20:10:09.746Z,26.37
2018-07-22T20:12:38.172Z,26.67
2018-07-22T20:15:06.573Z,25.20
2018-07-22T20:17:35.217Z,25.90
2018-07-22T20:20:03.819Z,23.97
2018-07-22T20:22:32.076Z,26.77
2018-07-22T20:25:00.968Z,25.80
2018-07-22T20:27:29.347Z,27.60
2018-07-22T20:29:57.524Z,27.60
2018-07-22T20:32:27.036Z,28.13
2018-07-22T20:34:54.921Z,29.10
2018-07-22T20:37:23.270Z,28.90
2018-07-22T20:39:51.673Z,28.97
2018-07-22T20:42:19.986Z,29.43
2018-07-22T20:44:48.293Z,29.87
2018-07-22T20:47:16.637Z,28.23
2018-07-22T20:49:44.578Z,32.73
2018-07-22T20:52:13.201Z,34.10
2018-07-22T20:54:41.004Z,34.83
2018-07-22T20:57:08.878Z,34.00
2018-07-22T20:59:38.198Z,33.87
2018-07-22T21:02:07.264Z,37.07
2018-07-22T21:04:35.218Z,35.17
2018-07-22T21:07:03.283Z,36.70
2018-07-22T21:09:31.150Z,36.00
2018-07-22T21:13:08.850Z,36.13
2018-07-22T21:15:36.858Z,34.50
2018-07-22T21:18:04.536Z,32.93
2018-07-22T21:20:32.806Z,37.30
2018-07-22T21:23:00.609Z,34.43
2018-07-22T21:25:28.965Z,34.40
2018-07-22T21:27:56.696Z,33.63
2018-07-22T21:30:24.495Z,34.50
2018-07-22T21:32:52.301Z,35.57
2018-07-22T21:35:19.998Z,37.40
2018-07-22T21:37:47.966Z,35.80
2018-07-22T21:40:15.990Z,35.50
2018-07-22T21:42:44.133Z,34.60
2018-07-22T21:45:11.710Z,37.20
2018-07-22T21:47:39.570Z,37.10
2018-07-22T21:50:07.922Z,39.00
2018-07-22T21:52:35.739Z,38.40
2018-07-22T21:55:03.969Z,39.07
2018-07-22T21:57:31.879Z,38.80
2018-07-22T21:59:59.720Z,36.33
2018-07-22T22:02:31.765Z,32.20
2018-07-22T22:05:00.506Z,33.73
2018-07-22T22:07:29.372Z,34.20
2018-07-22T22:09:57.376Z,34.87
2018-07-22T22:12:25.050Z,30.87
2018-07-22T22:14:53.057Z,33.10
2018-07-22T22:17:20.830Z,30.47
2018-07-22T22:19:48.649Z,31.17
2018-07-22T22:22:16.537Z,28.80
2018-07-22T22:24:44.664Z,30.03
2018-07-22T22:27:12.310Z,32.57
2018-07-22T22:29:40.341Z,33.97
2018-07-22T22:32:08.417Z,32.13
2018-07-22T22:34:36.166Z,30.27
2018-07-22T22:37:03.899Z,30.40
2018-07-22T22:39:31.845Z,32.73
2018-07-22T22:41:59.577Z,36.03
2018-07-22T22:44:27.553Z,35.70
2018-07-22T22:46:55.238Z,38.93
2018-07-22T22:49:22.949Z,38.50
2018-07-22T22:51:50.659Z,40.03
2018-07-22T22:54:18.544Z,38.07
2018-07-22T22:56:46.500Z,38.13
2018-07-22T22:59:17.428Z,40.50
2018-07-22T23:01:45.804Z,38.87
2018-07-22T23:04:14.094Z,38.73
2018-07-22T23:06:41.864Z,36.93
2018-07-22T23:09:12.072Z,33.90
2018-07-22T23:11:40.376Z,36.33
2018-07-22T23:14:08.532Z,37.90
2018-07-22T23:16:36.740Z,40.27
2018-07-22T23:19:04.792Z,40.90
2018-07-22T23:21:32.962Z,39.37
2018-07-22T23:24:01.054Z,44.93
2018-07-22T23:26:29.762Z,43.90
2018-07-22T23:28:57.524Z,42.87
2018-07-22T23:31:25.411Z,41.87
2018-07-22T23:33:53.960Z,44.10
2018-07-22T23:36:22.129Z,43.60
2018-07-22T23:38:49.928Z,43.10
2018-07-22T23:41:18.074Z,44.23
2018-07-22T23:43:46.196Z,48.50
2018-07-22T23:46:14.245Z,46.33
2018-07-22T23:48:42.195Z,46.00
2018-07-22T23:51:10.282Z,47.67
2018-07-22T23:53:37.943Z,48.33
2018-07-22T23:56:05.937Z,49.27
2018-07-22T23:58:33.700Z,47.33
